createdAt,value
2019-04-06T00:00:24.560Z,27.80
2019-04-06T00:02:52.978Z,30.67
2019-04-06T00:05:21.389Z,29.80
2019-04-06T00:07:50.000Z,28.20
2019-04-06T00:10:18.405Z,30.50
2019-04-06T00:12:46.808Z,29.67
2019-04-06T00:15:15.229Z,28.73
2019-04-06T00:17:43.635Z,28.37
2019-04-06T00:20:12.370Z,28.03
2019-04-06T00:22:41.082Z,29.97
2019-04-06T00:25:09.574Z,27.60
2019-04-06T00:27:40.929Z,29.63
2019-04-06T00:30:11.261Z,28.23
2019-04-06T00:32:50.100Z,32.47
2019-04-06T00:35:18.528Z,28.13
2019-04-06T00:37:46.940Z,28.47
2019-04-06T00:40:15.569Z,29.12
2019-04-06T00:42:44.002Z,31.47
2019-04-06T00:45:12.473Z,28.37
2019-04-06T00:47:40.865Z,28.03
2019-04-06T00:50:09.535Z,27.47
2019-04-06T00:52:37.956Z,27.40
2019-04-06T00:55:06.352Z,28.30
2019-04-06T00:57:34.896Z,27.67
2019-04-06T01:00:04.446Z,25.53
2019-04-06T01:02:32.944Z,27.03
2019-04-06T01:05:01.336Z,28.50
2019-04-06T01:07:29.752Z,27.03
2019-04-06T01:09:58.156Z,26.63
2019-04-06T01:12:26.553Z,29.27
2019-04-06T01:14:54.980Z,27.90
2019-04-06T01:17:23.373Z,31.20
2019-04-06T01:19:51.794Z,29.50
2019-04-06T01:22:20.196Z,32.43
2019-04-06T01:24:48.626Z,28.20
2019-04-06T01:27:17.055Z,30.43
2019-04-06T01:29:45.468Z,27.93
2019-04-06T01:32:13.871Z,33.13
2019-04-06T01:34:42.297Z,26.50
2019-04-06T01:37:10.692Z,28.23
2019-04-06T01:39:39.088Z,26.47
2019-04-06T01:42:07.949Z,30.83
2019-04-06T01:44:36.415Z,30.93
2019-04-06T01:47:04.817Z,27.87
2019-04-06T01:49:33.248Z,28.97
2019-04-06T01:52:01.657Z,26.73
2019-04-06T01:54:30.123Z,28.80
2019-04-06T01:56:58.768Z,28.63
2019-04-06T01:59:27.173Z,26.27
2019-04-06T02:02:09.252Z,26.77
2019-04-06T02:04:37.684Z,30.20
2019-04-06T02:07:06.125Z,27.37
2019-04-06T02:09:34.517Z,27.20
2019-04-06T02:12:02.920Z,26.27
2019-04-06T02:14:31.360Z,29.73
2019-04-06T02:16:59.822Z,27.23
2019-04-06T02:19:28.248Z,27.83
2019-04-06T02:21:56.678Z,28.43
2019-04-06T02:24:25.074Z,29.00
2019-04-06T02:26:53.473Z,30.50
2019-04-06T02:29:21.917Z,29.53
2019-04-06T02:32:06.909Z,29.40
2019-04-06T02:34:55.011Z,28.90
2019-04-06T02:37:30.581Z,29.90
2019-04-06T02:40:03.529Z,30.40
2019-04-06T02:42:48.442Z,28.57
2019-04-06T02:45:17.119Z,32.80
2019-04-06T02:47:45.783Z,31.37
2019-04-06T02:50:14.318Z,35.47
2019-04-06T02:52:42.756Z,33.20
2019-04-06T02:55:11.221Z,34.53
2019-04-06T02:57:39.613Z,32.40
2019-04-06T03:00:08.557Z,31.50
2019-04-06T03:02:37.030Z,31.57
2019-04-06T03:05:06.736Z,31.23
2019-04-06T03:07:35.623Z,30.83
2019-04-06T03:10:06.561Z,32.33
2019-04-06T03:12:34.952Z,31.47
2019-04-06T03:15:03.522Z,36.73
2019-04-06T03:17:32.153Z,31.50
2019-04-06T03:20:00.529Z,34.07
2019-04-06T03:22:28.969Z,35.93
2019-04-06T03:24:57.368Z,33.87
2019-04-06T03:27:25.779Z,35.53
2019-04-06T03:29:58.220Z,35.07
2019-04-06T03:32:24.431Z,32.27
2019-04-06T03:34:52.886Z,35.93
2019-04-06T03:37:21.318Z,33.73
2019-04-06T03:39:49.717Z,36.83
2019-04-06T03:42:18.114Z,31.93
2019-04-06T03:44:46.549Z,35.80
2019-04-06T03:47:15.030Z,36.80
2019-04-06T03:49:43.433Z,39.80
2019-04-06T03:52:12.010Z,33.90
2019-04-06T03:54:40.409Z,40.33
2019-04-06T03:57:15.907Z,36.43
2019-04-06T03:59:39.199Z,40.10
2019-04-06T04:02:07.720Z,39.43
2019-04-06T04:04:36.510Z,40.70
2019-04-06T04:07:05.082Z,38.67
2019-04-06T04:09:33.485Z,39.63
2019-04-06T04:12:01.894Z,36.70
2019-04-06T04:14:30.323Z,40.13
2019-04-06T04:16:58.729Z,36.07
2019-04-06T04:19:27.142Z,42.03
2019-04-06T04:21:55.817Z,37.27
2019-04-06T04:24:24.272Z,38.13
2019-04-06T04:26:52.823Z,38.53
2019-04-06T04:29:21.525Z,41.70
2019-04-06T04:31:50.184Z,46.57
2019-04-06T04:34:18.597Z,45.60
2019-04-06T04:36:47.035Z,40.73
2019-04-06T04:39:15.421Z,44.27
2019-04-06T04:41:43.948Z,40.60
2019-04-06T04:44:12.397Z,40.90
2019-04-06T04:46:40.796Z,43.03
2019-04-06T04:49:09.252Z,37.57
2019-04-06T04:51:37.742Z,42.97
2019-04-06T04:54:06.118Z,39.47
2019-04-06T04:56:34.926Z,42.70
2019-04-06T04:59:03.331Z,41.67
2019-04-06T05:01:31.716Z,39.97
2019-04-06T05:04:00.169Z,41.37
2019-04-06T05:06:28.564Z,41.93
2019-04-06T05:08:57.013Z,42.37
2019-04-06T05:11:25.476Z,40.80
2019-04-06T05:14:13.413Z,40.27
2019-04-06T05:16:41.851Z,40.93
2019-04-06T05:19:10.269Z,40.33
2019-04-06T05:21:38.685Z,38.80
2019-04-06T05:24:07.850Z,38.57
2019-04-06T05:26:37.937Z,40.27
2019-04-06T05:29:06.368Z,38.57
2019-04-06T05:31:34.996Z,43.23
2019-04-06T05:34:03.373Z,36.87
2019-04-06T05:36:31.768Z,38.70
2019-04-06T05:39:00.200Z,37.37
2019-04-06T05:41:28.628Z,36.37
2019-04-06T05:43:57.088Z,36.07
2019-04-06T05:46:25.532Z,37.90
2019-04-06T05:48:54.008Z,37.33
2019-04-06T05:51:22.408Z,34.27
2019-04-06T05:53:50.947Z,38.07
2019-04-06T05:56:19.429Z,37.23
2019-04-06T05:58:47.841Z,37.77
2019-04-06T06:01:16.320Z,37.77
2019-04-06T06:03:44.760Z,33.57
2019-04-06T06:06:13.421Z,35.43
2019-04-06T06:08:41.837Z,34.80
2019-04-06T06:11:10.317Z,35.23
2019-04-06T06:13:39.446Z,37.33
2019-04-06T06:16:07.888Z,35.33
2019-04-06T06:18:36.322Z,35.10
2019-04-06T06:21:04.723Z,35.40
2019-04-06T06:23:33.192Z,37.43
2019-04-06T06:26:01.747Z,37.00
2019-04-06T06:28:30.172Z,39.10
2019-04-06T06:30:58.632Z,36.13
2019-04-06T06:33:27.076Z,35.93
2019-04-06T06:35:55.472Z,37.40
2019-04-06T06:38:23.904Z,35.77
2019-04-06T06:40:52.308Z,36.63
2019-04-06T06:43:20.880Z,37.20
2019-04-06T06:45:49.312Z,34.83
2019-04-06T06:48:17.712Z,34.90
2019-04-06T06:50:46.314Z,36.10
2019-04-06T06:53:14.730Z,33.73
2019-04-06T06:55:43.488Z,34.23
2019-04-06T06:58:12.006Z,34.40
2019-04-06T07:00:40.440Z,31.77
2019-04-06T07:03:08.857Z,32.23
2019-04-06T07:05:37.334Z,33.37
2019-04-06T07:08:05.788Z,35.30
2019-04-06T07:10:34.192Z,33.90
2019-04-06T07:13:02.606Z,32.87
2019-04-06T07:15:31.045Z,33.57
2019-04-06T07:17:59.448Z,33.60
2019-04-06T07:20:27.982Z,32.90
2019-04-06T07:22:56.592Z,35.07
2019-04-06T07:25:25.139Z,37.00
2019-04-06T07:27:54.532Z,34.23
2019-04-06T07:30:23.108Z,34.20
2019-04-06T07:32:51.501Z,35.60
2019-04-06T07:35:19.964Z,31.33
2019-04-06T07:37:48.384Z,33.13
2019-04-06T07:40:16.930Z,34.47
2019-04-06T07:42:45.424Z,34.47
2019-04-06T07:45:14.944Z,33.27
2019-04-06T07:47:43.367Z,33.00
2019-04-06T07:50:12.561Z,35.33
2019-04-06T07:52:41.042Z,33.40
2019-04-06T07:55:10.324Z,32.90
2019-04-06T07:57:38.918Z,32.40
2019-04-06T08:00:08.385Z,32.97
2019-04-06T08:02:36.783Z,36.03
2019-04-06T08:05:06.388Z,33.33
2019-04-06T08:07:34.776Z,34.80
2019-04-06T08:10:03.517Z,37.17
2019-04-06T08:12:32.153Z,33.93
2019-04-06T08:15:00.641Z,37.23
2019-04-06T08:17:29.338Z,33.93
2019-04-06T08:19:57.789Z,34.67
2019-04-06T08:22:26.279Z,34.97
2019-04-06T08:24:54.721Z,33.33
2019-04-06T08:27:23.315Z,33.80
2019-04-06T08:29:51.988Z,33.80
2019-04-06T08:32:20.422Z,33.10
2019-04-06T08:34:48.855Z,31.27
2019-04-06T08:37:17.292Z,33.00
2019-04-06T08:39:45.714Z,30.23
2019-04-06T08:42:14.185Z,30.87
2019-04-06T08:44:42.609Z,33.90
2019-04-06T08:47:11.301Z,30.97
2019-04-06T08:49:39.729Z,31.30
2019-04-06T08:52:08.136Z,32.37
2019-04-06T08:54:36.546Z,32.07
2019-04-06T08:57:05.029Z,29.97
2019-04-06T08:59:33.461Z,31.00
2019-04-06T09:02:02.141Z,29.93
2019-04-06T09:04:30.656Z,31.57
2019-04-06T09:06:59.054Z,29.83
2019-04-06T09:09:27.681Z,29.47
2019-04-06T09:11:56.188Z,29.33
2019-04-06T09:14:24.588Z,33.87
2019-04-06T09:16:52.990Z,29.63
2019-04-06T09:19:21.505Z,31.83
2019-04-06T09:21:50.305Z,27.70
2019-04-06T09:24:18.807Z,29.53
2019-04-06T09:26:48.478Z,30.07
2019-04-06T09:29:23.634Z,29.43
2019-04-06T09:31:48.153Z,28.50
2019-04-06T09:34:16.532Z,29.65
2019-04-06T09:36:44.936Z,27.93
2019-04-06T09:39:13.776Z,28.07
2019-04-06T09:41:42.507Z,28.77
2019-04-06T09:44:12.855Z,28.40
2019-04-06T09:46:57.916Z,28.27
2019-04-06T09:49:27.958Z,24.93
2019-04-06T09:52:14.681Z,28.03
2019-04-06T09:54:47.961Z,25.67
2019-04-06T09:57:36.311Z,25.93
2019-04-06T10:00:11.597Z,25.60
2019-04-06T10:02:58.080Z,26.73
2019-04-06T10:05:30.872Z,25.07
2019-04-06T10:08:06.726Z,24.37
2019-04-06T10:10:53.272Z,26.57
2019-04-06T10:13:32.644Z,24.43
2019-04-06T10:16:17.724Z,24.27
2019-04-06T10:18:50.215Z,22.90
2019-04-06T10:21:38.703Z,24.83
2019-04-06T10:24:21.995Z,24.47
2019-04-06T10:27:08.568Z,22.70
2019-04-06T10:29:57.178Z,24.80
2019-04-06T10:32:42.949Z,23.27
2019-04-06T10:35:21.853Z,23.97
2019-04-06T10:37:55.109Z,24.50
2019-04-06T10:40:41.577Z,22.93
2019-04-06T10:43:28.232Z,25.20
2019-04-06T10:46:01.417Z,24.53
2019-04-06T10:48:34.301Z,23.73
2019-04-06T10:51:07.400Z,23.60
2019-04-06T10:53:52.748Z,25.03
2019-04-06T10:56:32.149Z,23.65
2019-04-06T10:59:10.704Z,24.40
2019-04-06T11:01:49.921Z,23.93
2019-04-06T11:04:26.233Z,23.05
2019-04-06T11:06:56.487Z,25.20
2019-04-06T11:09:41.778Z,23.80
2019-04-06T11:12:11.920Z,23.53
2019-04-06T11:14:42.236Z,24.60
2019-04-06T11:17:15.167Z,24.43
2019-04-06T11:19:51.138Z,24.27
2019-04-06T11:22:37.636Z,23.40
2019-04-06T11:25:23.384Z,24.30
2019-04-06T11:28:09.864Z,23.20
2019-04-06T11:30:45.791Z,23.07
2019-04-06T11:33:25.101Z,23.57
2019-04-06T11:35:55.253Z,21.57
2019-04-06T11:38:28.037Z,22.77
2019-04-06T11:41:10.268Z,22.63
2019-04-06T11:43:43.073Z,23.13
2019-04-06T11:46:25.428Z,21.87
2019-04-06T11:49:10.607Z,21.83
2019-04-06T11:51:58.448Z,20.37
2019-04-06T11:54:44.548Z,22.90
2019-04-06T11:57:17.335Z,21.80
2019-04-06T11:59:53.509Z,21.80
2019-04-06T12:02:26.309Z,21.83
2019-04-06T12:04:56.464Z,21.73
2019-04-06T12:07:32.497Z,22.10
2019-04-06T12:10:05.784Z,22.23
2019-04-06T12:12:48.285Z,23.20
2019-04-06T12:15:18.458Z,22.03
2019-04-06T12:17:48.546Z,22.83
2019-04-06T12:20:36.996Z,23.13
2019-04-06T12:23:23.370Z,21.77
2019-04-06T12:25:56.116Z,22.03
2019-04-06T12:28:44.634Z,21.40
2019-04-06T12:31:24.410Z,21.83
2019-04-06T12:34:10.674Z,20.30
2019-04-06T12:36:52.554Z,20.70
2019-04-06T12:39:37.695Z,19.30
2019-04-06T12:42:07.794Z,19.10
2019-04-06T12:44:37.822Z,18.17
2019-04-06T12:47:20.609Z,20.10
2019-04-06T12:50:08.517Z,17.77
2019-04-06T12:52:38.600Z,17.57
2019-04-06T12:55:08.877Z,18.00
2019-04-06T12:57:48.392Z,17.90
2019-04-06T13:00:34.018Z,18.63
2019-04-06T13:03:22.535Z,18.17
2019-04-06T13:05:55.583Z,19.83
2019-04-06T13:08:25.860Z,19.00
2019-04-06T13:11:12.307Z,18.93
2019-04-06T13:13:51.223Z,18.43
2019-04-06T13:16:26.072Z,17.07
2019-04-06T13:19:21.165Z,15.13
2019-04-06T13:22:07.748Z,18.67
2019-04-06T13:24:40.316Z,18.73
2019-04-06T13:27:16.189Z,17.23
2019-04-06T13:29:49.061Z,16.47
2019-04-06T13:32:19.178Z,18.95
2019-04-06T13:34:52.169Z,19.37
2019-04-06T13:37:22.304Z,19.47
2019-04-06T13:40:04.405Z,17.73
2019-04-06T13:42:34.688Z,17.80
2019-04-06T13:45:18.219Z,18.43
2019-04-06T13:47:48.297Z,16.37
2019-04-06T13:50:21.960Z,16.23
2019-04-06T13:52:54.779Z,17.87
2019-04-06T13:55:27.592Z,18.07
2019-04-06T13:58:12.456Z,16.40
2019-04-06T14:00:45.669Z,16.87
2019-04-06T14:03:32.000Z,17.43
2019-04-06T14:06:18.647Z,16.33
2019-04-06T14:08:51.282Z,14.77
2019-04-06T14:11:21.356Z,18.10
2019-04-06T14:13:54.378Z,17.00
2019-04-06T14:16:39.824Z,17.37
2019-04-06T14:19:16.236Z,17.47
2019-04-06T14:21:55.392Z,15.90
2019-04-06T14:24:41.797Z,15.70
2019-04-06T14:27:14.317Z,15.20
2019-04-06T14:29:45.294Z,15.57
2019-04-06T14:32:33.602Z,17.80
2019-04-06T14:35:03.646Z,17.20
2019-04-06T14:37:33.831Z,17.63
2019-04-06T14:40:06.691Z,18.10
2019-04-06T14:42:49.316Z,18.60
2019-04-06T14:45:35.618Z,17.73
2019-04-06T14:48:05.668Z,18.13
2019-04-06T14:50:38.644Z,18.67
2019-04-06T14:53:14.762Z,17.63
2019-04-06T14:55:50.792Z,16.07
2019-04-06T14:58:37.109Z,16.53
2019-04-06T15:01:38.447Z,15.03
2019-04-06T15:03:57.641Z,15.47
2019-04-06T15:06:45.868Z,15.47
2019-04-06T15:09:16.404Z,15.27
2019-04-06T15:11:46.898Z,16.07
2019-04-06T15:14:29.229Z,14.70
2019-04-06T15:17:05.208Z,16.10
2019-04-06T15:19:41.503Z,15.90
2019-04-06T15:22:14.332Z,16.13
2019-04-06T15:25:01.083Z,16.53
2019-04-06T15:27:31.217Z,16.10
2019-04-06T15:30:17.877Z,15.33
2019-04-06T15:32:57.235Z,15.83
2019-04-06T15:35:27.467Z,15.53
2019-04-06T15:37:57.953Z,16.57
2019-04-06T15:40:28.065Z,16.77
2019-04-06T15:43:18.815Z,16.10
2019-04-06T15:45:48.404Z,15.60
2019-04-06T15:48:37.978Z,15.83
2019-04-06T15:51:06.776Z,14.63
2019-04-06T15:53:51.956Z,15.17
2019-04-06T15:56:22.103Z,15.17
2019-04-06T15:58:52.146Z,14.50
2019-04-06T16:01:33.957Z,15.03
2019-04-06T16:04:04.037Z,15.70
2019-04-06T16:06:36.789Z,15.93
2019-04-06T16:09:14.456Z,13.20
2019-04-06T16:12:01.236Z,14.33
2019-04-06T16:14:46.611Z,14.13
2019-04-06T16:17:19.325Z,16.00
2019-04-06T16:19:49.446Z,14.17
2019-04-06T16:22:37.711Z,14.87
2019-04-06T16:25:08.087Z,14.20
2019-04-06T16:27:54.663Z,14.53
2019-04-06T16:30:24.769Z,13.90
2019-04-06T16:32:54.848Z,14.60
2019-04-06T16:35:27.893Z,14.50
2019-04-06T16:38:00.634Z,14.80
2019-04-06T16:40:36.393Z,15.30
2019-04-06T16:43:21.661Z,14.83
2019-04-06T16:45:58.047Z,15.33
2019-04-06T16:48:34.117Z,14.97
2019-04-06T16:51:07.277Z,13.90
2019-04-06T16:53:52.626Z,13.97
2019-04-06T16:56:38.287Z,15.03
2019-04-06T16:59:08.320Z,14.07
2019-04-06T17:01:41.251Z,14.10
2019-04-06T17:04:11.360Z,14.10
2019-04-06T17:06:41.721Z,14.70
2019-04-06T17:09:21.069Z,14.50
2019-04-06T17:12:03.101Z,14.77
2019-04-06T17:14:39.363Z,14.40
2019-04-06T17:17:24.459Z,13.70
2019-04-06T17:20:00.829Z,13.43
2019-04-06T17:22:40.243Z,14.97
2019-04-06T17:25:13.162Z,14.77
2019-04-06T17:27:59.304Z,13.43
2019-04-06T17:30:29.767Z,14.17
2019-04-06T17:33:16.522Z,14.17
2019-04-06T17:35:49.347Z,16.63
2019-04-06T17:38:34.697Z,15.13
2019-04-06T17:41:13.581Z,15.53
2019-04-06T17:43:52.387Z,14.90
2019-04-06T17:46:38.008Z,16.23
2019-04-06T17:49:20.259Z,15.43
2019-04-06T17:51:51.061Z,15.37
2019-04-06T17:54:39.421Z,15.83
2019-04-06T17:57:09.959Z,15.50
2019-04-06T17:59:55.337Z,15.03
2019-04-06T18:02:48.707Z,16.48
2019-04-06T18:05:30.263Z,15.73
2019-04-06T18:08:06.345Z,16.70
2019-04-06T18:10:52.889Z,16.53
2019-04-06T18:13:22.976Z,16.17
2019-04-06T18:15:51.865Z,14.97
2019-04-06T18:18:20.404Z,14.40
2019-04-06T18:20:49.233Z,15.43
2019-04-06T18:23:17.739Z,15.90
2019-04-06T18:25:46.142Z,15.40
2019-04-06T18:28:14.994Z,16.50
2019-04-06T18:30:45.032Z,15.27
2019-04-06T18:33:15.073Z,15.73
2019-04-06T18:35:43.546Z,15.93
2019-04-06T18:38:13.628Z,17.70
2019-04-06T18:40:42.994Z,17.80
2019-04-06T18:43:11.612Z,17.20
2019-04-06T18:45:40.010Z,18.80
2019-04-06T18:48:08.969Z,18.80
2019-04-06T18:50:38.910Z,16.57
2019-04-06T18:53:07.798Z,16.33
2019-04-06T18:55:36.271Z,16.67
2019-04-06T18:58:11.286Z,17.17
2019-04-06T19:00:34.988Z,22.30
2019-04-06T19:03:12.728Z,20.10
2019-04-06T19:05:33.627Z,22.13
2019-04-06T19:08:02.099Z,19.87
2019-04-06T19:10:30.605Z,23.00
2019-04-06T19:12:59.061Z,19.10
2019-04-06T19:15:27.495Z,18.33
2019-04-06T19:17:55.928Z,18.67
2019-04-06T19:20:25.009Z,17.60
2019-04-06T19:22:53.504Z,19.27
2019-04-06T19:25:21.956Z,18.70
2019-04-06T19:27:50.859Z,16.70
2019-04-06T19:30:20.369Z,17.75
2019-04-06T19:32:48.803Z,17.73
2019-04-06T19:35:17.237Z,19.73
2019-04-06T19:37:45.643Z,18.70
2019-04-06T19:40:16.214Z,18.47
2019-04-06T19:42:44.621Z,18.80
2019-04-06T19:45:13.161Z,18.47
2019-04-06T19:47:41.617Z,20.00
2019-04-06T19:50:10.575Z,19.80
2019-04-06T19:52:39.276Z,18.20
2019-04-06T19:55:08.253Z,21.93
2019-04-06T19:57:36.867Z,18.60
2019-04-06T20:00:09.083Z,18.90
2019-04-06T20:02:38.042Z,23.43
2019-04-06T20:05:08.436Z,22.53
2019-04-06T20:07:36.853Z,20.03
2019-04-06T20:10:08.396Z,21.37
2019-04-06T20:12:36.865Z,22.60
2019-04-06T20:15:06.893Z,22.40
2019-04-06T20:17:35.491Z,23.57
2019-04-06T20:20:06.545Z,21.17
2019-04-06T20:22:35.309Z,21.40
2019-04-06T20:25:05.945Z,19.60
2019-04-06T20:27:34.399Z,21.03
2019-04-06T20:30:04.523Z,20.77
2019-04-06T20:32:33.006Z,19.90
2019-04-06T20:35:01.560Z,21.30
2019-04-06T20:37:29.975Z,21.87
2019-04-06T20:39:58.376Z,21.03
2019-04-06T20:42:26.837Z,22.80
2019-04-06T20:44:55.240Z,22.87
2019-04-06T20:47:24.176Z,23.60
2019-04-06T20:49:52.780Z,21.30
2019-04-06T20:52:21.709Z,19.55
2019-04-06T20:54:50.176Z,17.60
2019-04-06T20:57:20.177Z,17.17
2019-04-06T20:59:48.742Z,18.40
2019-04-06T21:02:17.340Z,20.70
2019-04-06T21:04:45.835Z,19.63
2019-04-06T21:07:14.777Z,19.87
2019-04-06T21:09:43.800Z,19.93
2019-04-06T21:12:12.732Z,18.60
2019-04-06T21:14:41.520Z,20.27
2019-04-06T21:17:10.563Z,24.57
2019-04-06T21:19:39.425Z,22.90
2019-04-06T21:22:08.103Z,20.87
2019-04-06T21:24:37.309Z,20.47
2019-04-06T21:27:06.288Z,21.23
2019-04-06T21:29:34.701Z,20.07
2019-04-06T21:32:04.004Z,20.30
2019-04-06T21:34:32.761Z,20.53
2019-04-06T21:37:01.214Z,19.33
2019-04-06T21:39:30.629Z,18.73
2019-04-06T21:41:59.698Z,19.00
2019-04-06T21:44:28.153Z,19.70
2019-04-06T21:46:57.398Z,19.07
2019-04-06T21:49:25.893Z,18.30
2019-04-06T21:51:54.285Z,19.83
2019-04-06T21:54:22.926Z,19.03
2019-04-06T21:56:51.838Z,19.00
2019-04-06T21:59:20.837Z,19.60
2019-04-06T22:01:50.123Z,19.83
2019-04-06T22:04:25.381Z,19.00
2019-04-06T22:06:49.796Z,19.27
2019-04-06T22:09:18.633Z,18.43
2019-04-06T22:11:47.174Z,21.83
2019-04-06T22:14:15.856Z,21.20
2019-04-06T22:16:44.635Z,21.33
2019-04-06T22:19:13.124Z,19.73
2019-04-06T22:21:41.577Z,20.23
2019-04-06T22:24:10.541Z,21.80
2019-04-06T22:26:39.361Z,20.80
2019-04-06T22:29:08.177Z,19.30
2019-04-06T22:31:37.070Z,18.53
2019-04-06T22:34:05.604Z,20.20
2019-04-06T22:36:34.515Z,20.57
2019-04-06T22:39:03.227Z,19.67
2019-04-06T22:41:31.700Z,19.30
2019-04-06T22:44:00.717Z,20.43
2019-04-06T22:46:29.692Z,20.57
2019-04-06T22:48:58.538Z,19.77
2019-04-06T22:51:27.343Z,20.20
2019-04-06T22:53:55.793Z,19.43
2019-04-06T22:56:24.269Z,20.47
2019-04-06T22:58:52.721Z,20.13
2019-04-06T23:01:22.859Z,20.47
2019-04-06T23:03:52.929Z,20.20
2019-04-06T23:06:25.692Z,20.83
2019-04-06T23:08:54.094Z,20.63
2019-04-06T23:11:22.657Z,19.83
2019-04-06T23:13:51.578Z,20.27
2019-04-06T23:16:20.675Z,19.95
2019-04-06T23:18:51.212Z,19.57
2019-04-06T23:21:20.270Z,18.83
2019-04-06T23:23:48.782Z,18.53
2019-04-06T23:26:17.276Z,19.80
2019-04-06T23:28:45.771Z,19.27
2019-04-06T23:31:14.746Z,20.10
2019-04-06T23:33:43.292Z,18.77
2019-04-06T23:36:11.954Z,18.73
2019-04-06T23:38:40.488Z,17.97
2019-04-06T23:41:09.421Z,18.53
2019-04-06T23:43:37.901Z,19.07
2019-04-06T23:46:06.388Z,18.40
2019-04-06T23:48:34.928Z,20.00
2019-04-06T23:51:03.376Z,18.80
2019-04-06T23:53:31.781Z,19.90
2019-04-06T23:56:00.237Z,19.97
2019-04-06T23:58:29.599Z,21.37
